createdAt,value
2018-10-09T00:00:34.542Z,98671.72
2018-10-09T00:03:05.508Z,98667.68
2018-10-09T00:05:36.228Z,98666.20
2018-10-09T00:08:06.747Z,98664.17
2018-10-09T00:10:37.791Z,98667.52
2018-10-09T00:13:08.605Z,98671.82
2018-10-09T00:15:39.373Z,98674.33
2018-10-09T00:18:10.470Z,98668.72
2018-10-09T00:20:41.334Z,98674.65
2018-10-09T00:23:12.086Z,98674.80
2018-10-09T00:25:42.807Z,98671.52
2018-10-09T00:28:13.651Z,98676.94
2018-10-09T00:30:44.235Z,98672.84
2018-10-09T00:33:14.921Z,98673.66
2018-10-09T00:35:45.615Z,98660.95
2018-10-09T00:38:16.491Z,98654.89
2018-10-09T00:40:47.196Z,98657.30
2018-10-09T00:43:17.851Z,98655.03
2018-10-09T00:45:48.511Z,98654.99
2018-10-09T00:48:19.003Z,98663.09
2018-10-09T00:50:49.831Z,98663.71
2018-10-09T00:53:20.555Z,98662.88
2018-10-09T00:55:51.271Z,98658.60
2018-10-09T00:58:21.927Z,98658.28
2018-10-09T01:00:52.707Z,98653.44
2018-10-09T01:03:23.834Z,98650.72
2018-10-09T01:05:54.855Z,98649.61
2018-10-09T01:08:25.431Z,98655.53
2018-10-09T01:10:56.202Z,98649.19
2018-10-09T01:13:27.143Z,98647.78
2018-10-09T01:15:57.979Z,98646.72
2018-10-09T01:18:28.821Z,98651.60
2018-10-09T01:20:59.642Z,98648.51
2018-10-09T01:23:30.858Z,98651.84
2018-10-09T01:26:01.476Z,98654.56
2018-10-09T01:28:32.371Z,98652.61
2018-10-09T01:31:03.199Z,98653.44
2018-10-09T01:33:34.151Z,98654.36
2018-10-09T01:36:04.874Z,98650.95
2018-10-09T01:38:35.714Z,98654.32
2018-10-09T01:41:06.987Z,98654.87
2018-10-09T01:43:37.917Z,98658.34
2018-10-09T01:46:08.770Z,98660.58
2018-10-09T01:48:40.028Z,98650.70
2018-10-09T01:51:11.082Z,98639.96
2018-10-09T01:53:42.623Z,98635.20
2018-10-09T01:56:13.635Z,98630.53
2018-10-09T01:58:45.210Z,98626.26
2018-10-09T02:01:16.271Z,98625.88
2018-10-09T02:06:27.920Z,98625.91
2018-10-09T02:08:58.743Z,98617.91
2018-10-09T02:11:29.377Z,98623.77
2018-10-09T02:13:59.931Z,98623.05
2018-10-09T02:16:30.547Z,98628.47
2018-10-09T02:19:01.200Z,98628.97
2018-10-09T02:21:31.894Z,98628.49
2018-10-09T02:24:02.802Z,98626.94
2018-10-09T02:26:33.595Z,98637.22
2018-10-09T02:29:04.621Z,98630.78
2018-10-09T02:31:35.413Z,98631.36
2018-10-09T02:34:06.367Z,98624.27
2018-10-09T02:36:38.007Z,98625.22
2018-10-09T02:39:11.603Z,98635.20
2018-10-09T02:41:42.339Z,98626.67
2018-10-09T02:44:13.418Z,98627.54
2018-10-09T02:46:44.666Z,98631.45
2018-10-09T02:49:15.608Z,98628.47
2018-10-09T02:51:47.046Z,98629.48
2018-10-09T02:54:19.013Z,98631.28
2018-10-09T02:56:50.527Z,98631.75
2018-10-09T02:59:21.347Z,98626.53
2018-10-09T03:01:52.508Z,98638.19
2018-10-09T03:04:25.195Z,98638.39
2018-10-09T03:06:56.263Z,98638.20
2018-10-09T03:09:27.287Z,98639.03
2018-10-09T03:11:57.607Z,98641.83
2018-10-09T03:14:28.246Z,98637.28
2018-10-09T03:16:58.880Z,98637.92
2018-10-09T03:19:29.533Z,98635.50
2018-10-09T03:22:01.208Z,98641.35
2018-10-09T03:24:31.891Z,98636.32
2018-10-09T03:27:02.857Z,98641.55
2018-10-09T03:29:33.463Z,98637.37
2018-10-09T03:32:04.227Z,98641.30
2018-10-09T03:34:35.357Z,98635.70
2018-10-09T03:37:06.710Z,98632.30
2018-10-09T03:39:37.488Z,98635.02
2018-10-09T03:42:08.283Z,98635.21
2018-10-09T03:44:38.779Z,98637.73
2018-10-09T03:47:09.651Z,98633.23
2018-10-09T03:49:40.780Z,98636.77
2018-10-09T03:52:11.579Z,98638.08
2018-10-09T03:54:42.720Z,98649.48
2018-10-09T03:57:13.646Z,98653.02
2018-10-09T03:59:44.605Z,98651.33
2018-10-09T04:02:15.669Z,98645.37
2018-10-09T04:04:46.395Z,98649.48
2018-10-09T04:07:17.279Z,98655.38
2018-10-09T04:09:47.993Z,98656.50
2018-10-09T04:12:20.100Z,98653.06
2018-10-09T04:14:51.491Z,98658.63
2018-10-09T04:17:22.124Z,98666.18
2018-10-09T04:19:52.851Z,98658.34
2018-10-09T04:22:23.996Z,98659.02
2018-10-09T04:24:54.910Z,98661.78
2018-10-09T04:27:26.303Z,98661.88
2018-10-09T04:29:56.878Z,98656.40
2018-10-09T04:32:28.364Z,98660.32
2018-10-09T04:34:59.388Z,98664.14
2018-10-09T04:37:30.231Z,98658.24
2018-10-09T04:40:00.988Z,98657.13
2018-10-09T04:42:31.966Z,98653.41
2018-10-09T04:45:03.864Z,98648.52
2018-10-09T04:47:34.887Z,98652.44
2018-10-09T04:50:07.395Z,98650.55
2018-10-09T04:52:38.198Z,98650.84
2018-10-09T04:55:09.344Z,98640.67
2018-10-09T04:57:40.390Z,98641.89
2018-10-09T05:00:11.237Z,98639.33
2018-10-09T05:02:42.867Z,98641.08
2018-10-09T05:05:13.623Z,98641.75
2018-10-09T05:07:44.239Z,98646.44
2018-10-09T05:10:15.599Z,98655.00
2018-10-09T05:12:46.552Z,98651.91
2018-10-09T05:15:17.375Z,98653.70
2018-10-09T05:17:49.634Z,98662.84
2018-10-09T05:20:20.587Z,98662.36
2018-10-09T05:22:50.994Z,98669.91
2018-10-09T05:25:21.791Z,98678.03
2018-10-09T05:27:52.442Z,98680.07
2018-10-09T05:30:23.056Z,98683.64
2018-10-09T05:32:53.646Z,98688.39
2018-10-09T05:35:24.575Z,98686.70
2018-10-09T05:37:55.262Z,98685.68
2018-10-09T05:40:26.239Z,98688.29
2018-10-09T05:42:56.803Z,98686.31
2018-10-09T05:45:27.512Z,98693.95
2018-10-09T05:47:58.132Z,98695.84
2018-10-09T05:50:28.960Z,98690.14
2018-10-09T05:52:59.535Z,98692.66
2018-10-09T05:55:30.308Z,98691.63
2018-10-09T05:58:01.119Z,98694.50
2018-10-09T06:00:32.170Z,98698.32
2018-10-09T06:03:02.496Z,98695.99
2018-10-09T06:05:33.058Z,98696.72
2018-10-09T06:08:03.432Z,98697.30
2018-10-09T06:10:34.201Z,98706.88
2018-10-09T06:13:06.108Z,98711.23
2018-10-09T06:15:37.175Z,98704.98
2018-10-09T06:18:07.968Z,98702.27
2018-10-09T06:20:38.880Z,98706.09
2018-10-09T06:23:13.136Z,98710.06
2018-10-09T06:25:44.623Z,98708.44
2018-10-09T06:28:16.318Z,98695.48
2018-10-09T06:30:47.980Z,98707.00
2018-10-09T06:33:18.811Z,98705.87
2018-10-09T06:35:50.353Z,98704.47
2018-10-09T06:38:21.082Z,98706.25
2018-10-09T06:40:51.747Z,98715.45
2018-10-09T06:43:23.975Z,98706.58
2018-10-09T06:45:54.579Z,98706.99
2018-10-09T06:48:25.280Z,98709.27
2018-10-09T06:50:56.376Z,98712.41
2018-10-09T06:53:27.272Z,98708.20
2018-10-09T06:55:58.031Z,98711.16
2018-10-09T06:58:28.622Z,98710.58
2018-10-09T07:00:59.232Z,98712.30
2018-10-09T07:03:29.820Z,98712.58
2018-10-09T07:06:00.775Z,98713.30
2018-10-09T07:08:31.421Z,98720.33
2018-10-09T07:11:02.072Z,98717.33
2018-10-09T07:13:32.790Z,98718.44
2018-10-09T07:16:03.756Z,98711.89
2018-10-09T07:18:34.320Z,98724.47
2018-10-09T07:21:04.996Z,98723.98
2018-10-09T07:23:35.604Z,98722.47
2018-10-09T07:26:06.495Z,98730.59
2018-10-09T07:28:37.283Z,98730.39
2018-10-09T07:31:07.927Z,98729.70
2018-10-09T07:33:38.752Z,98728.66
2018-10-09T07:36:09.388Z,98730.38
2018-10-09T07:38:40.200Z,98733.41
2018-10-09T07:41:11.218Z,98737.00
2018-10-09T07:43:42.001Z,98739.06
2018-10-09T07:46:12.778Z,98742.66
2018-10-09T07:48:43.473Z,98742.14
2018-10-09T07:51:14.204Z,98744.30
2018-10-09T07:53:45.135Z,98749.53
2018-10-09T07:56:15.784Z,98753.70
2018-10-09T07:58:46.776Z,98757.86
2018-10-09T08:01:20.031Z,98754.34
2018-10-09T08:03:50.823Z,98757.52
2018-10-09T08:06:21.551Z,98754.81
2018-10-09T08:08:52.283Z,98762.33
2018-10-09T08:11:22.934Z,98762.70
2018-10-09T08:13:53.651Z,98766.23
2018-10-09T08:16:24.568Z,98767.19
2018-10-09T08:18:55.514Z,98766.06
2018-10-09T08:21:26.479Z,98767.16
2018-10-09T08:23:57.139Z,98763.50
2018-10-09T08:26:28.167Z,98762.69
2018-10-09T08:28:59.278Z,98761.88
2018-10-09T08:31:30.084Z,98760.95
2018-10-09T08:34:00.998Z,98762.11
2018-10-09T08:36:32.574Z,98760.38
2018-10-09T08:39:04.064Z,98763.08
2018-10-09T08:41:36.446Z,98765.66
2018-10-09T08:44:08.088Z,98765.74
2018-10-09T08:46:38.802Z,98763.38
2018-10-09T08:49:10.225Z,98767.23
2018-10-09T08:51:41.112Z,98759.03
2018-10-09T08:54:12.098Z,98764.61
2018-10-09T08:56:42.871Z,98768.34
2018-10-09T08:59:13.190Z,98763.73
2018-10-09T09:01:43.766Z,98764.09
2018-10-09T09:04:14.479Z,98759.86
2018-10-09T09:06:46.235Z,98757.91
2018-10-09T09:09:16.852Z,98757.97
2018-10-09T09:11:47.671Z,98756.80
2018-10-09T09:14:18.656Z,98763.17
2018-10-09T09:16:49.346Z,98769.89
2018-10-09T09:19:19.987Z,98766.97
2018-10-09T09:21:50.819Z,98768.06
2018-10-09T09:24:21.687Z,98761.91
2018-10-09T09:26:52.249Z,98767.94
2018-10-09T09:29:23.340Z,98762.31
2018-10-09T09:31:54.459Z,98757.89
2018-10-09T09:34:26.830Z,98748.91
2018-10-09T09:36:57.422Z,98746.53
2018-10-09T09:39:28.217Z,98744.78
2018-10-09T09:41:59.058Z,98748.05
2018-10-09T09:44:29.900Z,98740.19
2018-10-09T09:47:00.528Z,98740.19
2018-10-09T09:49:31.007Z,98742.07
2018-10-09T09:52:01.611Z,98736.50
2018-10-09T09:54:32.374Z,98730.64
2018-10-09T09:57:03.236Z,98728.94
2018-10-09T09:59:33.873Z,98725.33
2018-10-09T10:02:04.858Z,98731.05
2018-10-09T10:04:35.615Z,98727.11
2018-10-09T10:07:06.832Z,98729.81
2018-10-09T10:09:37.739Z,98716.03
2018-10-09T10:12:08.648Z,98721.41
2018-10-09T10:14:39.603Z,98713.31
2018-10-09T10:17:10.204Z,98720.70
2018-10-09T10:19:40.922Z,98712.41
2018-10-09T10:22:11.492Z,98702.80
2018-10-09T10:24:42.452Z,98703.64
2018-10-09T10:27:13.188Z,98703.81
2018-10-09T10:29:43.879Z,98704.81
2018-10-09T10:32:14.604Z,98702.00
2018-10-09T10:34:44.951Z,98700.52
2018-10-09T10:37:15.541Z,98693.89
2018-10-09T10:39:46.437Z,98690.72
2018-10-09T10:42:17.227Z,98690.22
2018-10-09T10:44:48.105Z,98686.55
2018-10-09T10:47:19.254Z,98684.38
2018-10-09T10:49:50.280Z,98674.67
2018-10-09T10:52:22.758Z,98667.23
2018-10-09T10:54:56.950Z,98665.55
2018-10-09T10:57:29.340Z,98653.59
2018-10-09T11:00:07.659Z,98658.41
2018-10-09T11:02:40.944Z,98666.41
2018-10-09T11:05:11.627Z,98657.42
2018-10-09T11:07:42.334Z,98662.23
2018-10-09T11:10:13.356Z,98660.05
2018-10-09T11:12:45.883Z,98657.73
2018-10-09T11:15:16.960Z,98655.28
2018-10-09T11:17:47.752Z,98647.62
2018-10-09T11:20:23.406Z,98646.44
2018-10-09T11:22:54.482Z,98649.28
2018-10-09T11:25:29.229Z,98653.25
2018-10-09T11:28:02.096Z,98650.94
2018-10-09T11:30:35.668Z,98647.42
2018-10-09T11:33:08.096Z,98639.58
2018-10-09T11:35:40.580Z,98642.91
2018-10-09T11:38:14.545Z,98639.77
2018-10-09T11:40:45.408Z,98636.80
2018-10-09T11:43:16.023Z,98630.93
2018-10-09T11:45:46.956Z,98625.63
2018-10-09T11:48:20.984Z,98624.66
2018-10-09T11:50:51.700Z,98617.35
2018-10-09T11:53:22.470Z,98619.17
2018-10-09T11:55:53.074Z,98611.16
2018-10-09T11:58:24.113Z,98607.50
2018-10-09T12:00:57.188Z,98606.69
2018-10-09T12:03:27.855Z,98614.67
2018-10-09T12:05:58.945Z,98607.19
2018-10-09T12:08:29.512Z,98599.88
2018-10-09T12:11:00.939Z,98608.35
2018-10-09T12:13:31.540Z,98600.02
2018-10-09T12:16:02.423Z,98594.87
2018-10-09T12:18:33.355Z,98593.22
2018-10-09T12:21:03.995Z,98588.92
2018-10-09T12:23:34.944Z,98583.56
2018-10-09T12:26:06.727Z,98581.45
2018-10-09T12:28:37.540Z,98583.59
2018-10-09T12:31:08.817Z,98587.25
2018-10-09T12:33:44.504Z,98583.40
2018-10-09T12:36:17.153Z,98584.08
2018-10-09T12:38:49.778Z,98584.42
2018-10-09T12:41:20.685Z,98589.74
2018-10-09T12:43:51.523Z,98580.11
2018-10-09T12:46:22.385Z,98583.91
2018-10-09T12:48:56.481Z,98581.56
2018-10-09T12:51:27.067Z,98573.74
2018-10-09T12:53:58.656Z,98573.06
2018-10-09T12:56:29.448Z,98579.86
2018-10-09T12:59:01.135Z,98576.72
2018-10-09T13:01:31.984Z,98576.20
2018-10-09T13:04:02.819Z,98573.54
2018-10-09T13:06:33.703Z,98576.06
2018-10-09T13:09:05.533Z,98571.91
2018-10-09T13:11:36.361Z,98560.39
2018-10-09T13:14:07.523Z,98572.92
2018-10-09T13:16:38.091Z,98570.27
2018-10-09T13:19:09.196Z,98567.94
2018-10-09T13:21:40.698Z,98568.09
2018-10-09T13:24:11.415Z,98564.48
2018-10-09T13:26:42.018Z,98568.45
2018-10-09T13:29:12.818Z,98566.78
2018-10-09T13:31:43.728Z,98566.75
2018-10-09T13:34:14.529Z,98567.42
2018-10-09T13:36:45.836Z,98565.11
2018-10-09T13:39:17.048Z,98569.89
2018-10-09T13:41:56.008Z,98563.23
2018-10-09T13:44:26.852Z,98560.87
2018-10-09T13:46:57.778Z,98561.30
2018-10-09T13:49:32.303Z,98549.31
2018-10-09T13:52:03.269Z,98548.38
2018-10-09T13:54:35.980Z,98546.05
2018-10-09T13:57:07.038Z,98551.20
2018-10-09T13:59:37.812Z,98546.36
2018-10-09T14:02:09.363Z,98547.39
2018-10-09T14:04:40.193Z,98544.08
2018-10-09T14:07:11.006Z,98542.75
2018-10-09T14:09:41.785Z,98546.40
2018-10-09T14:12:15.611Z,98545.11
2018-10-09T14:14:46.301Z,98543.91
2018-10-09T14:17:17.116Z,98540.77
2018-10-09T14:19:47.928Z,98542.61
2018-10-09T14:22:18.891Z,98539.95
2018-10-09T14:24:49.868Z,98535.69
2018-10-09T14:27:20.677Z,98536.16
2018-10-09T14:29:51.510Z,98532.88
2018-10-09T14:32:22.278Z,98528.56
2018-10-09T14:34:53.228Z,98528.92
2018-10-09T14:37:24.275Z,98531.25
2018-10-09T14:39:55.164Z,98530.11
2018-10-09T14:42:25.815Z,98529.28
2018-10-09T14:44:56.616Z,98526.95
2018-10-09T14:47:27.367Z,98530.59
2018-10-09T14:50:00.618Z,98534.43
2018-10-09T14:52:40.596Z,98522.93
2018-10-09T14:55:16.425Z,98522.09
2018-10-09T14:57:47.685Z,98513.63
2018-10-09T15:00:18.535Z,98515.78
2018-10-09T15:02:49.580Z,98518.94
2018-10-09T15:05:22.724Z,98529.87
2018-10-09T15:07:53.424Z,98524.73
2018-10-09T15:10:24.023Z,98519.91
2018-10-09T15:12:54.966Z,98521.41
2018-10-09T15:15:29.645Z,98519.59
2018-10-09T15:18:00.402Z,98521.25
2018-10-09T15:20:31.688Z,98525.07
2018-10-09T15:23:02.302Z,98523.40
2018-10-09T15:25:32.959Z,98517.43
2018-10-09T15:28:09.796Z,98526.88
2018-10-09T15:30:45.780Z,98520.59
2018-10-09T15:33:17.912Z,98524.40
2018-10-09T15:35:49.092Z,98521.76
2018-10-09T15:38:19.803Z,98524.77
2018-10-09T15:40:51.149Z,98529.91
2018-10-09T15:43:26.140Z,98527.75
2018-10-09T15:45:58.228Z,98526.23
2018-10-09T15:48:29.154Z,98525.22
2018-10-09T15:51:00.621Z,98534.52
2018-10-09T15:53:31.384Z,98529.53
2018-10-09T15:56:02.240Z,98528.20
2018-10-09T15:58:32.835Z,98525.89
2018-10-09T16:01:04.009Z,98525.84
2018-10-09T16:03:34.856Z,98521.02
2018-10-09T16:06:05.504Z,98527.48
2018-10-09T16:08:38.777Z,98534.61
2018-10-09T16:11:09.754Z,98527.42
2018-10-09T16:13:40.442Z,98539.00
2018-10-09T16:16:11.112Z,98544.63
2018-10-09T16:18:41.683Z,98540.12
2018-10-09T16:21:12.371Z,98548.20
2018-10-09T16:23:43.083Z,98540.88
2018-10-09T16:26:14.475Z,98541.98
2018-10-09T16:28:45.506Z,98542.30
2018-10-09T16:31:17.955Z,98541.72
2018-10-09T16:33:49.230Z,98550.11
2018-10-09T16:36:24.281Z,98552.34
2018-10-09T16:38:57.205Z,98555.80
2018-10-09T16:41:28.235Z,98547.45
2018-10-09T16:43:58.605Z,98552.86
2018-10-09T16:46:29.224Z,98556.43
2018-10-09T16:48:59.787Z,98571.11
2018-10-09T16:51:30.859Z,98561.26
2018-10-09T16:54:01.437Z,98568.13
2018-10-09T16:56:32.063Z,98561.08
2018-10-09T16:59:02.736Z,98558.83
2018-10-09T17:01:33.318Z,98568.08
2018-10-09T17:04:05.428Z,98570.59
2018-10-09T17:06:36.261Z,98572.51
2018-10-09T17:09:13.341Z,98570.61
2018-10-09T17:11:43.932Z,98582.58
2018-10-09T17:14:14.959Z,98579.84
2018-10-09T17:16:45.576Z,98571.53
2018-10-09T17:19:16.780Z,98576.41
2018-10-09T17:21:47.624Z,98575.05
2018-10-09T17:24:18.348Z,98580.28
2018-10-09T17:26:49.614Z,98580.05
2018-10-09T17:29:20.752Z,98581.73
2018-10-09T17:31:51.901Z,98582.32
2018-10-09T17:34:23.245Z,98584.97
2018-10-09T17:36:53.876Z,98591.95
2018-10-09T17:39:24.682Z,98590.73
2018-10-09T17:41:55.599Z,98592.63
2018-10-09T17:44:26.567Z,98590.48
2018-10-09T17:46:57.340Z,98596.83
2018-10-09T17:49:28.550Z,98599.47
2018-10-09T17:51:59.296Z,98603.31
2018-10-09T17:57:10.438Z,98604.77
2018-10-09T17:59:45.833Z,98603.54
2018-10-09T18:02:16.833Z,98603.32
2018-10-09T18:04:47.715Z,98605.56
2018-10-09T18:07:18.737Z,98608.75
2018-10-09T18:09:49.520Z,98603.80
2018-10-09T18:12:20.171Z,98604.58
2018-10-09T18:14:51.164Z,98611.42
2018-10-09T18:17:21.968Z,98614.62
2018-10-09T18:19:58.021Z,98618.85
2018-10-09T18:22:28.780Z,98611.20
2018-10-09T18:25:00.544Z,98611.48
2018-10-09T18:27:31.272Z,98609.34
2018-10-09T18:30:02.015Z,98611.89
2018-10-09T18:32:34.492Z,98613.84
2018-10-09T18:35:14.183Z,98607.88
2018-10-09T18:37:45.596Z,98610.98
2018-10-09T18:40:19.496Z,98605.92
2018-10-09T18:42:50.744Z,98610.84
2018-10-09T18:45:21.612Z,98618.25
2018-10-09T18:47:57.639Z,98620.73
2018-10-09T18:50:28.890Z,98623.69
2018-10-09T18:53:02.231Z,98622.77
2018-10-09T18:55:33.304Z,98626.92
2018-10-09T18:58:04.027Z,98630.79
2018-10-09T19:00:34.640Z,98628.42
2018-10-09T19:03:05.360Z,98625.22
2018-10-09T19:05:36.127Z,98626.44
2018-10-09T19:08:10.299Z,98629.34
2018-10-09T19:10:41.064Z,98625.06
2018-10-09T19:13:12.226Z,98633.06
2018-10-09T19:15:43.212Z,98626.77
2018-10-09T19:18:17.231Z,98622.14
2018-10-09T19:20:55.882Z,98626.61
2018-10-09T19:23:29.159Z,98618.61
2018-10-09T19:26:00.418Z,98623.57
2018-10-09T19:28:31.119Z,98620.63
2018-10-09T19:31:01.786Z,98624.02
2018-10-09T19:33:32.599Z,98621.14
2018-10-09T19:36:03.529Z,98623.41
2018-10-09T19:38:34.516Z,98620.70
2018-10-09T19:41:05.517Z,98629.32
2018-10-09T19:43:38.011Z,98630.94
2018-10-09T19:46:08.761Z,98629.89
2018-10-09T19:48:39.511Z,98623.73
2018-10-09T19:51:10.594Z,98627.33
2018-10-09T19:53:41.265Z,98631.17
2018-10-09T19:56:12.066Z,98633.11
2018-10-09T19:58:42.928Z,98638.79
2018-10-09T20:01:13.951Z,98637.36
2018-10-09T20:03:45.176Z,98640.14
2018-10-09T20:06:15.909Z,98645.89
2018-10-09T20:08:46.663Z,98644.95
2018-10-09T20:11:17.082Z,98646.99
2018-10-09T20:13:47.815Z,98646.87
2018-10-09T20:16:18.665Z,98648.42
2018-10-09T20:18:49.374Z,98651.20
2018-10-09T20:21:20.045Z,98653.21
2018-10-09T20:23:50.692Z,98649.05
2018-10-09T20:26:21.497Z,98652.74
2018-10-09T20:28:52.270Z,98650.23
2018-10-09T20:31:22.861Z,98654.30
2018-10-09T20:33:53.597Z,98650.72
2018-10-09T20:36:24.184Z,98653.95
2018-10-09T20:38:55.341Z,98652.75
2018-10-09T20:41:27.235Z,98658.95
2018-10-09T20:43:59.657Z,98653.11
2018-10-09T20:46:30.865Z,98650.72
2018-10-09T20:49:02.281Z,98660.24
2018-10-09T20:51:34.272Z,98657.85
2018-10-09T20:54:08.665Z,98657.60
2018-10-09T20:56:39.293Z,98652.95
2018-10-09T20:59:10.642Z,98654.73
2018-10-09T21:01:44.987Z,98655.20
2018-10-09T21:04:15.899Z,98652.20
2018-10-09T21:06:46.645Z,98646.59
2018-10-09T21:09:17.888Z,98643.38
2018-10-09T21:11:48.909Z,98643.61
2018-10-09T21:14:20.069Z,98653.41
2018-10-09T21:16:50.891Z,98644.08
2018-10-09T21:19:21.615Z,98640.98
2018-10-09T21:21:52.233Z,98646.69
2018-10-09T21:24:23.007Z,98640.47
2018-10-09T21:26:53.843Z,98639.84
2018-10-09T21:29:24.542Z,98644.13
2018-10-09T21:31:56.223Z,98649.38
2018-10-09T21:34:26.817Z,98654.15
2018-10-09T21:37:02.267Z,98651.37
2018-10-09T21:39:33.400Z,98644.59
2018-10-09T21:42:14.056Z,98639.91
2018-10-09T21:44:47.565Z,98636.31
2018-10-09T21:47:19.148Z,98640.11
2018-10-09T21:49:50.206Z,98629.38
2018-10-09T21:52:22.403Z,98635.20
2018-10-09T21:54:53.092Z,98627.33
2018-10-09T21:57:26.296Z,98633.29
2018-10-09T21:59:57.319Z,98630.06
2018-10-09T22:02:27.945Z,98626.47
2018-10-09T22:04:58.692Z,98628.00
2018-10-09T22:07:29.315Z,98626.99
2018-10-09T22:10:00.148Z,98622.23
2018-10-09T22:12:30.775Z,98626.17
2018-10-09T22:15:01.400Z,98621.37
2018-10-09T22:17:32.039Z,98628.42
2018-10-09T22:20:02.673Z,98620.77
2018-10-09T22:22:33.300Z,98621.37
2018-10-09T22:25:03.892Z,98618.64
2018-10-09T22:27:34.652Z,98623.88
2018-10-09T22:30:06.044Z,98613.62
2018-10-09T22:32:36.786Z,98617.06
2018-10-09T22:35:07.571Z,98618.23
2018-10-09T22:37:38.169Z,98624.55
2018-10-09T22:40:08.824Z,98623.13
2018-10-09T22:42:39.588Z,98620.25
2018-10-09T22:45:10.309Z,98618.67
2018-10-09T22:47:41.748Z,98617.13
2018-10-09T22:50:12.512Z,98611.89
2018-10-09T22:52:43.120Z,98616.16
2018-10-09T22:55:13.784Z,98616.76
2018-10-09T22:57:44.456Z,98611.25
2018-10-09T23:00:15.354Z,98609.23
2018-10-09T23:02:45.961Z,98606.23
2018-10-09T23:05:16.843Z,98610.50
2018-10-09T23:07:47.538Z,98606.11
2018-10-09T23:10:17.960Z,98599.19
2018-10-09T23:12:48.596Z,98599.39
2018-10-09T23:15:19.520Z,98599.72
2018-10-09T23:17:50.295Z,98600.66
2018-10-09T23:20:21.004Z,98600.88
2018-10-09T23:22:51.811Z,98601.59
2018-10-09T23:25:24.007Z,98594.05
2018-10-09T23:27:54.840Z,98592.74
2018-10-09T23:30:25.533Z,98597.61
2018-10-09T23:32:57.520Z,98589.75
2018-10-09T23:35:29.974Z,98588.92
2018-10-09T23:38:01.324Z,98587.72
2018-10-09T23:40:32.361Z,98580.08
2018-10-09T23:43:04.809Z,98581.95
2018-10-09T23:45:35.771Z,98583.05
2018-10-09T23:48:08.151Z,98578.28
2018-10-09T23:50:41.663Z,98579.11
2018-10-09T23:53:12.472Z,98571.47
2018-10-09T23:55:43.223Z,98575.40
2018-10-09T23:58:14.151Z,98575.63
